Time;durP1;ratioP1;P1;durP2;ratioP2;P2;SDS_P1;SDS_P2;PMS_P1;PMS_P2;Temp;Humidity;BMP_temperature;BMP_pressure;BME280_temperature;BME280_humidity;BME280_pressure;Samples;Min_cycle;Max_cycle;Signal;HPM_P1;HPM_P2
2023/05/17 00:00:30;;;;;;;3.03;1.60;;;15.10;55.90;;;;;;5035836;28;20999;-81
2023/05/17 00:02:57;;;;;;;5.50;1.73;;;15.10;56.00;;;;;;5035723;28;20548;-80
2023/05/17 00:05:24;;;;;;;1.90;1.33;;;15.10;56.10;;;;;;5034735;28;20453;-79
2023/05/17 00:07:51;;;;;;;3.07;1.77;;;15.10;56.30;;;;;;5035568;28;20820;-80
2023/05/17 00:10:17;;;;;;;3.50;1.57;;;15.00;56.40;;;;;;4999468;28;20484;-79
2023/05/17 00:12:46;;;;;;;1.87;1.60;;;15.00;56.70;;;;;;5035924;28;20485;-81
2023/05/17 00:15:13;;;;;;;5.70;2.10;;;15.00;57.00;;;;;;5035009;28;21012;-80
2023/05/17 00:17:40;;;;;;;2.60;1.80;;;15.00;56.90;;;;;;5018455;28;20472;-80
2023/05/17 00:20:08;;;;;;;3.73;1.93;;;14.90;56.80;;;;;;5035310;28;21177;-81
2023/05/17 00:22:35;;;;;;;3.37;1.57;;;14.90;57.20;;;;;;5017990;28;20806;-80
2023/05/17 00:25:01;;;;;;;3.93;1.67;;;14.90;57.40;;;;;;5035197;28;20487;-80
2023/05/17 00:27:28;;;;;;;5.50;2.00;;;14.80;57.40;;;;;;5035646;28;20544;-81
2023/05/17 00:29:57;;;;;;;3.77;1.73;;;14.80;57.40;;;;;;5035698;28;20489;-80
2023/05/17 00:32:24;;;;;;;4.63;1.70;;;14.70;57.30;;;;;;5035731;28;20467;-79
2023/05/17 00:34:51;;;;;;;2.07;1.70;;;14.70;57.50;;;;;;5035513;28;20543;-80
2023/05/17 00:37:18;;;;;;;1.70;1.57;;;14.60;57.90;;;;;;5035291;28;20544;-78
2023/05/17 00:39:44;;;;;;;2.70;1.70;;;14.60;58.10;;;;;;5035404;28;20445;-80
2023/05/17 00:42:12;;;;;;;3.33;1.70;;;14.50;58.10;;;;;;5035029;28;20568;-80
2023/05/17 00:44:38;;;;;;;3.80;1.90;;;14.50;58.30;;;;;;5034902;28;20449;-81
2023/05/17 00:47:07;;;;;;;5.57;1.93;;;14.40;58.30;;;;;;5017332;28;20488;-80
2023/05/17 00:49:34;;;;;;;4.03;1.80;;;14.40;58.40;;;;;;5035087;28;20479;-80
2023/05/17 00:52:01;;;;;;;4.37;2.03;;;14.30;58.70;;;;;;5017493;28;20949;-80
2023/05/17 00:54:29;;;;;;;7.30;2.10;;;14.30;58.80;;;;;;5034824;28;20453;-81
2023/05/17 00:56:58;;;;;;;3.13;1.87;;;14.30;59.10;;;;;;4999946;28;20451;-80
2023/05/17 00:59:40;;;;;;;2.13;1.90;;;14.20;59.30;;;;;;5033986;28;20818;-80
2023/05/17 01:02:09;;;;;;;1.97;1.40;;;14.20;59.80;;;;;;5034102;28;20465;-79
2023/05/17 01:04:37;;;;;;;2.73;1.23;;;14.10;59.60;;;;;;5034503;28;20499;-79
2023/05/17 01:07:04;;;;;;;3.80;1.63;;;14.10;59.70;;;;;;5017287;28;20445;-81
2023/05/17 01:09:31;;;;;;;3.93;1.63;;;14.00;59.80;;;;;;5034223;28;20497;-80
2023/05/17 01:12:07;;;;;;;2.73;1.70;;;14.00;60.00;;;;;;5034883;28;20480;-80
2023/05/17 01:14:44;;;;;;;2.43;1.70;;;14.00;60.30;;;;;;5033575;28;20475;-81
2023/05/17 01:17:17;;;;;;;4.20;1.60;;;13.90;60.40;;;;;;5033957;28;20445;-79
2023/05/17 01:20:05;;;;;;;2.67;1.43;;;13.90;60.70;;;;;;5033181;28;20434;-81
2023/05/17 01:22:45;;;;;;;4.43;1.80;;;13.80;60.80;;;;;;5033385;28;20480;-81
2023/05/17 01:25:23;;;;;;;2.63;1.40;;;13.80;61.00;;;;;;5032692;28;20857;-80
2023/05/17 01:27:58;;;;;;;3.30;1.60;;;13.70;61.10;;;;;;5033600;28;20437;-80
2023/05/17 01:30:26;;;;;;;4.70;1.90;;;13.60;61.00;;;;;;5033557;28;20851;-80
2023/05/17 01:32:56;;;;;;;3.93;1.90;;;13.60;61.70;;;;;;5033234;28;20453;-80
2023/05/17 01:35:23;;;;;;;4.10;1.60;;;13.60;61.40;;;;;;5032889;28;20911;-81
2023/05/17 01:37:50;;;;;;;2.63;2.00;;;13.60;61.50;;;;;;5032651;28;20496;-81
2023/05/17 01:40:18;;;;;;;2.37;1.50;;;13.60;61.60;;;;;;5033322;28;20496;-80
2023/05/17 01:42:48;;;;;;;3.80;1.70;;;13.50;61.70;;;;;;5033284;28;20480;-80
2023/05/17 01:45:23;;;;;;;4.03;1.70;;;13.50;62.00;;;;;;5031814;28;20449;-82
2023/05/17 01:47:58;;;;;;;2.27;1.40;;;13.50;62.00;;;;;;5033106;28;20576;-81
2023/05/17 01:50:29;;;;;;;2.57;1.50;;;13.40;62.10;;;;;;5015989;28;20492;-80
2023/05/17 01:53:02;;;;;;;1.97;1.33;;;13.30;62.10;;;;;;5032775;28;20818;-80
2023/05/17 01:55:40;;;;;;;3.50;1.80;;;13.20;62.50;;;;;;5032729;28;20440;-79
2023/05/17 01:58:08;;;;;;;2.40;1.90;;;13.10;63.00;;;;;;5032740;28;20459;-80
2023/05/17 02:00:38;;;;;;;3.13;1.87;;;13.00;63.80;;;;;;5032563;28;20436;-81
2023/05/17 02:03:05;;;;;;;2.77;1.70;;;13.00;63.20;;;;;;5033167;28;20484;-81
2023/05/17 02:05:32;;;;;;;2.60;1.93;;;12.90;63.30;;;;;;4998075;28;20460;-81
2023/05/17 02:07:59;;;;;;;3.00;1.93;;;12.90;63.40;;;;;;5032849;28;20955;-81
2023/05/17 02:10:26;;;;;;;2.83;1.90;;;12.80;63.40;;;;;;5032831;28;20866;-81
2023/05/17 02:12:53;;;;;;;2.80;1.77;;;12.80;63.70;;;;;;5032732;28;20813;-82
2023/05/17 02:15:20;;;;;;;3.07;1.50;;;12.70;63.90;;;;;;4976120;28;1144072;-80
2023/05/17 02:17:48;;;;;;;4.47;1.97;;;12.70;64.10;;;;;;5033434;28;20297;-81
2023/05/17 02:20:15;;;;;;;3.13;1.80;;;12.70;64.30;;;;;;5032196;28;20859;-81
2023/05/17 02:22:42;;;;;;;2.20;1.80;;;12.70;64.60;;;;;;5033769;28;20446;-80
2023/05/17 02:25:10;;;;;;;3.50;1.57;;;12.70;64.60;;;;;;4998566;28;20499;-80
2023/05/17 02:27:36;;;;;;;3.47;1.97;;;12.70;64.70;;;;;;5032412;28;20479;-81
2023/05/17 02:30:04;;;;;;;3.07;1.80;;;12.70;64.50;;;;;;5033208;28;20580;-82
2023/05/17 02:32:31;;;;;;;3.03;1.90;;;12.70;64.60;;;;;;5033402;28;20477;-80
2023/05/17 02:35:00;;;;;;;6.33;2.23;;;12.80;64.60;;;;;;5032280;28;20499;-80
2023/05/17 02:37:27;;;;;;;3.47;1.80;;;12.80;64.60;;;;;;5032810;28;20480;-80
2023/05/17 02:39:53;;;;;;;2.83;1.80;;;12.80;65.00;;;;;;5015979;28;20477;-80
2023/05/17 02:42:20;;;;;;;3.50;1.93;;;12.80;65.00;;;;;;5033072;28;20487;-80
2023/05/17 02:44:51;;;;;;;2.70;1.50;;;12.80;65.00;;;;;;5033160;28;20540;-80
2023/05/17 02:47:19;;;;;;;3.43;2.40;;;12.70;64.90;;;;;;5033020;28;20434;-81
2023/05/17 02:49:46;;;;;;;5.10;1.87;;;12.70;65.00;;;;;;5033361;28;20536;-81
2023/05/17 02:52:15;;;;;;;3.90;1.90;;;12.70;65.20;;;;;;5034536;28;20445;-81
2023/05/17 02:54:42;;;;;;;2.83;1.70;;;12.70;65.30;;;;;;5033479;28;20477;-81
2023/05/17 02:57:09;;;;;;;4.70;2.00;;;12.70;65.30;;;;;;5016155;28;20445;-80
2023/05/17 02:59:36;;;;;;;2.67;1.80;;;12.70;65.30;;;;;;5037587;28;20479;-81
2023/05/17 03:02:03;;;;;;;5.13;2.33;;;12.70;65.40;;;;;;5020229;28;20543;-80
2023/05/17 03:04:29;;;;;;;4.63;1.70;;;12.80;65.50;;;;;;5037804;28;20559;-81
2023/05/17 03:06:56;;;;;;;2.40;1.87;;;12.80;65.80;;;;;;5038374;28;20439;-83
2023/05/17 03:09:25;;;;;;;3.03;1.87;;;12.70;65.90;;;;;;4986570;28;20443;-71
2023/05/17 03:11:51;;;;;;;2.30;2.00;;;12.70;66.00;;;;;;5036890;28;20585;-81
2023/05/17 03:14:18;;;;;;;2.93;1.97;;;12.70;66.10;;;;;;5036812;28;20918;-82
2023/05/17 03:16:45;;;;;;;3.83;1.80;;;12.70;66.20;;;;;;5019102;28;20452;-81
2023/05/17 03:19:12;;;;;;;5.90;2.23;;;12.80;66.40;;;;;;5037977;28;20452;-81
2023/05/17 03:21:39;;;;;;;3.13;2.00;;;12.80;66.40;;;;;;5036829;28;20483;-82
2023/05/17 03:24:07;;;;;;;3.20;2.10;;;12.80;66.50;;;;;;5039255;28;20480;-80
2023/05/17 03:26:35;;;;;;;2.37;1.77;;;12.80;66.50;;;;;;5020492;28;20473;-81
2023/05/17 03:29:02;;;;;;;2.53;2.00;;;12.80;66.50;;;;;;5037525;28;20448;-80
2023/05/17 03:31:30;;;;;;;2.87;1.80;;;12.80;66.10;;;;;;5037185;28;20600;-81
2023/05/17 03:33:56;;;;;;;3.03;1.70;;;12.80;66.30;;;;;;5037083;28;20441;-80
2023/05/17 03:36:23;;;;;;;5.17;2.20;;;12.70;66.10;;;;;;5017301;28;20445;-81
2023/05/17 03:38:50;;;;;;;2.60;1.90;;;12.70;66.40;;;;;;5016572;28;20970;-80
2023/05/17 03:41:17;;;;;;;3.73;1.80;;;12.70;66.60;;;;;;5016839;28;20541;-81
2023/05/17 03:43:45;;;;;;;4.97;2.07;;;12.70;66.60;;;;;;5016582;28;20482;-81
2023/05/17 03:46:13;;;;;;;2.67;2.00;;;12.60;66.70;;;;;;5017043;28;20472;-81
2023/05/17 03:48:40;;;;;;;3.53;2.47;;;12.60;66.90;;;;;;5016236;28;20482;-81
2023/05/17 03:51:07;;;;;;;2.70;1.73;;;12.60;67.00;;;;;;5017228;28;20490;-80
2023/05/17 03:53:33;;;;;;;4.33;2.20;;;12.60;67.00;;;;;;5036376;28;20464;-82
2023/05/17 03:56:00;;;;;;;4.80;1.93;;;12.60;67.00;;;;;;5019488;28;20452;-81
2023/05/17 03:58:27;;;;;;;2.47;2.00;;;12.70;67.50;;;;;;5036622;28;20544;-80
2023/05/17 04:00:55;;;;;;;4.07;2.20;;;12.70;67.50;;;;;;5036467;28;20489;-81
2023/05/17 04:03:22;;;;;;;4.17;2.07;;;12.80;67.50;;;;;;5036046;28;20810;-81
2023/05/17 04:05:49;;;;;;;5.57;2.17;;;12.80;67.30;;;;;;5035994;28;20838;-81
2023/05/17 04:08:16;;;;;;;3.47;2.17;;;12.80;67.30;;;;;;5018429;28;20453;-80
2023/05/17 04:10:43;;;;;;;5.43;2.30;;;12.80;67.30;;;;;;5036065;28;20499;-81
2023/05/17 04:13:10;;;;;;;3.07;2.00;;;12.90;67.30;;;;;;5035787;28;20449;-80
2023/05/17 04:15:37;;;;;;;3.57;2.00;;;12.90;67.40;;;;;;5018105;28;20463;-80
2023/05/17 04:18:06;;;;;;;2.67;2.47;;;12.90;67.70;;;;;;4984990;28;20456;-80
2023/05/17 04:20:32;;;;;;;3.03;2.10;;;12.90;67.50;;;;;;5035721;28;20528;-80
2023/05/17 04:23:00;;;;;;;2.47;1.93;;;12.80;67.60;;;;;;5035756;28;20812;-81
2023/05/17 04:25:27;;;;;;;3.53;1.80;;;12.70;68.10;;;;;;5035406;28;20473;-81
2023/05/17 04:27:54;;;;;;;6.03;2.10;;;12.70;68.40;;;;;;5035620;28;20478;-83
2023/05/17 04:30:22;;;;;;;3.37;1.67;;;12.70;68.60;;;;;;5018165;28;20461;-82
2023/05/17 04:32:50;;;;;;;3.00;2.10;;;12.70;68.50;;;;;;5035681;28;20477;-82
2023/05/17 04:35:18;;;;;;;3.57;2.03;;;12.70;68.50;;;;;;5035365;28;20552;-81
2023/05/17 04:37:45;;;;;;;2.87;2.37;;;12.80;68.50;;;;;;5035406;28;20847;-80
2023/05/17 04:40:13;;;;;;;3.40;2.37;;;12.80;68.50;;;;;;5034898;28;20459;-82
2023/05/17 04:42:40;;;;;;;3.40;2.67;;;12.80;68.60;;;;;;5035125;28;20471;-82
2023/05/17 04:45:08;;;;;;;4.43;2.00;;;12.80;68.50;;;;;;5034853;28;20485;-81
2023/05/17 04:47:35;;;;;;;4.03;2.47;;;12.90;68.40;;;;;;5035286;28;20532;-81
2023/05/17 04:50:03;;;;;;;3.27;2.67;;;12.90;68.60;;;;;;5017202;28;20950;-81
2023/05/17 04:52:32;;;;;;;3.03;2.20;;;12.80;68.50;;;;;;5035320;28;20538;-81
2023/05/17 04:54:58;;;;;;;3.83;2.20;;;12.80;68.50;;;;;;5034817;28;20553;-80
2023/05/17 04:57:25;;;;;;;5.47;2.20;;;12.90;68.60;;;;;;5035194;28;20536;-80
2023/05/17 04:59:52;;;;;;;4.23;2.43;;;12.90;68.80;;;;;;5034259;28;21080;-80
2023/05/17 05:02:19;;;;;;;3.13;2.03;;;12.90;68.60;;;;;;5034625;28;20937;-81
2023/05/17 05:04:46;;;;;;;4.20;2.33;;;13.00;68.90;;;;;;5034767;28;20489;-81
2023/05/17 05:07:13;;;;;;;5.57;2.40;;;13.00;69.10;;;;;;5034704;28;20456;-81
2023/05/17 05:09:41;;;;;;;3.83;2.40;;;13.00;69.00;;;;;;5034953;28;20457;-81
2023/05/17 05:12:09;;;;;;;4.37;2.50;;;13.10;69.50;;;;;;5034342;28;20487;-81
2023/05/17 05:14:36;;;;;;;4.97;2.30;;;13.10;69.40;;;;;;5015836;28;21029;-81
2023/05/17 05:17:03;;;;;;;3.43;2.50;;;13.10;69.20;;;;;;5033977;28;20993;-76
2023/05/17 05:19:30;;;;;;;5.23;2.57;;;13.20;69.10;;;;;;5034868;28;20453;-76
2023/05/17 05:21:57;;;;;;;4.37;2.20;;;13.20;69.10;;;;;;5033858;28;20484;-76
2023/05/17 05:24:24;;;;;;;3.00;2.50;;;13.30;69.00;;;;;;5016894;28;20454;-74
2023/05/17 05:26:53;;;;;;;3.10;2.23;;;13.30;69.00;;;;;;5034633;28;20560;-74
2023/05/17 05:29:20;;;;;;;4.13;2.40;;;13.40;69.20;;;;;;5034719;28;20453;-76
2023/05/17 05:31:47;;;;;;;4.00;2.53;;;13.40;69.20;;;;;;5033680;28;20997;-76
2023/05/17 05:34:14;;;;;;;3.37;2.00;;;13.40;69.30;;;;;;5034773;28;20457;-75
2023/05/17 05:36:41;;;;;;;4.07;2.53;;;13.50;69.00;;;;;;5034656;28;20544;-77
2023/05/17 05:39:08;;;;;;;2.63;2.00;;;13.50;68.90;;;;;;5016655;28;20460;-75
2023/05/17 05:41:35;;;;;;;3.97;2.47;;;13.60;69.00;;;;;;5034115;28;20442;-74
2023/05/17 05:44:03;;;;;;;4.47;2.70;;;13.60;68.80;;;;;;5033259;28;20705;-71
2023/05/17 05:46:30;;;;;;;6.10;2.50;;;13.70;68.60;;;;;;5033439;28;20944;-75
2023/05/17 05:48:57;;;;;;;4.40;2.73;;;13.80;68.50;;;;;;5034138;28;20491;-77
2023/05/17 05:51:24;;;;;;;2.93;2.13;;;13.90;68.30;;;;;;5034175;28;20495;-77
2023/05/17 05:53:51;;;;;;;7.57;3.10;;;13.90;67.70;;;;;;5034153;28;20808;-76
2023/05/17 05:56:18;;;;;;;4.50;2.73;;;14.00;67.60;;;;;;5033917;28;20464;-75
2023/05/17 05:58:45;;;;;;;4.67;2.43;;;14.10;67.80;;;;;;5033727;28;20961;-76
2023/05/17 06:01:13;;;;;;;3.67;2.70;;;14.20;67.90;;;;;;5033382;28;20572;-76
2023/05/17 06:03:40;;;;;;;4.20;2.40;;;14.30;67.50;;;;;;5033415;28;20460;-76
2023/05/17 06:06:07;;;;;;;3.97;2.30;;;14.40;67.70;;;;;;5033451;28;20563;-74
2023/05/17 06:08:33;;;;;;;4.60;2.60;;;14.40;66.90;;;;;;5033112;28;20451;-75
2023/05/17 06:11:00;;;;;;;5.50;2.50;;;14.50;67.00;;;;;;5033047;28;20492;-75
2023/05/17 06:13:27;;;;;;;3.80;2.67;;;14.70;67.20;;;;;;5032958;28;20475;-75
2023/05/17 06:15:54;;;;;;;4.00;2.70;;;14.70;67.40;;;;;;4998309;28;20453;-75
2023/05/17 06:18:22;;;;;;;4.57;2.77;;;14.80;67.30;;;;;;5032912;28;20550;-76
2023/05/17 06:20:49;;;;;;;4.10;2.47;;;14.80;66.60;;;;;;5032941;28;20471;-76
2023/05/17 06:23:16;;;;;;;4.53;2.70;;;14.90;66.70;;;;;;5036948;28;20448;-74
2023/05/17 06:25:43;;;;;;;4.60;2.70;;;15.00;66.70;;;;;;5038847;28;20468;-75
2023/05/17 06:28:10;;;;;;;4.37;2.60;;;15.10;66.30;;;;;;5040438;28;20482;-75
2023/05/17 06:30:37;;;;;;;4.33;2.40;;;15.10;66.10;;;;;;5052869;28;20448;-75
2023/05/17 06:33:04;;;;;;;5.27;2.70;;;15.20;66.00;;;;;;5034879;28;20583;-74
2023/05/17 06:35:32;;;;;;;4.07;2.23;;;15.20;65.60;;;;;;5052727;28;20499;-74
2023/05/17 06:37:59;;;;;;;3.27;2.43;;;15.30;65.50;;;;;;5032318;28;21003;-74
2023/05/17 06:40:25;;;;;;;4.97;2.50;;;15.30;65.30;;;;;;5032912;28;20956;-74
2023/05/17 06:42:52;;;;;;;4.97;3.00;;;15.40;65.00;;;;;;5033495;28;20800;-77
2023/05/17 06:45:20;;;;;;;4.13;2.50;;;15.50;65.20;;;;;;5033245;28;20536;-74
2023/05/17 06:47:47;;;;;;;5.60;2.90;;;15.50;64.60;;;;;;5032530;28;20548;-74
2023/05/17 06:50:14;;;;;;;4.33;2.50;;;15.50;64.30;;;;;;5033197;28;20469;-74
2023/05/17 06:52:42;;;;;;;7.07;3.10;;;15.50;63.70;;;;;;5015612;28;21009;-75
2023/05/17 06:55:09;;;;;;;6.03;2.83;;;15.60;63.80;;;;;;5030835;28;20844;-75
2023/05/17 06:57:36;;;;;;;8.03;3.43;;;15.60;64.40;;;;;;5032215;28;20457;-75
2023/05/17 07:00:05;;;;;;;6.53;3.10;;;15.60;63.90;;;;;;5032237;28;20536;-75
2023/05/17 07:02:34;;;;;;;5.07;2.60;;;15.70;64.10;;;;;;5015897;28;20473;-76
2023/05/17 07:05:01;;;;;;;4.07;2.40;;;15.80;63.60;;;;;;5033010;28;20449;-75
2023/05/17 07:07:28;;;;;;;4.83;3.10;;;15.80;63.30;;;;;;5033121;28;20575;-74
2023/05/17 07:09:56;;;;;;;4.77;2.33;;;15.90;63.00;;;;;;5032592;28;20535;-76
2023/05/17 07:12:23;;;;;;;4.73;2.70;;;15.90;63.00;;;;;;5032787;28;20500;-74
2023/05/17 07:14:50;;;;;;;5.10;2.70;;;15.90;62.60;;;;;;5032685;28;20457;-77
2023/05/17 07:17:17;;;;;;;4.97;3.03;;;16.00;63.20;;;;;;5032990;28;20832;-75
2023/05/17 07:19:44;;;;;;;4.87;3.00;;;16.10;63.30;;;;;;5033006;28;20468;-76
2023/05/17 07:22:11;;;;;;;5.80;2.50;;;16.10;63.20;;;;;;5032800;28;21143;-76
2023/05/17 07:24:38;;;;;;;4.40;2.70;;;16.20;63.40;;;;;;5032358;28;20485;-75
2023/05/17 07:27:06;;;;;;;5.30;2.80;;;16.30;63.60;;;;;;5032512;28;20532;-75
2023/05/17 07:29:33;;;;;;;8.50;2.83;;;16.40;62.50;;;;;;5032364;28;20445;-75
2023/05/17 07:32:00;;;;;;;6.00;2.87;;;16.50;61.90;;;;;;5032743;28;20931;-75
2023/05/17 07:34:27;;;;;;;5.60;2.90;;;16.60;61.20;;;;;;5032944;28;20533;-74
2023/05/17 07:36:54;;;;;;;5.43;2.40;;;16.70;61.10;;;;;;5032425;28;20516;-76
2023/05/17 07:39:21;;;;;;;5.40;2.87;;;16.90;60.50;;;;;;5031797;28;20503;-75
2023/05/17 07:41:48;;;;;;;9.33;2.90;;;17.00;59.60;;;;;;5032328;28;20479;-76
2023/05/17 07:44:17;;;;;;;4.43;2.50;;;17.10;59.30;;;;;;5033540;28;20452;-75
2023/05/17 07:46:44;;;;;;;4.63;2.60;;;17.10;59.50;;;;;;5035793;28;21118;-76
2023/05/17 07:49:11;;;;;;;5.30;2.70;;;17.20;59.40;;;;;;5035779;28;20461;-74
2023/05/17 07:51:38;;;;;;;4.77;2.67;;;17.30;59.40;;;;;;5035714;28;20489;-75
2023/05/17 07:54:05;;;;;;;4.73;3.00;;;17.40;59.30;;;;;;5035500;28;20965;-75
2023/05/17 07:56:32;;;;;;;8.07;3.33;;;17.40;58.60;;;;;;5035874;28;20484;-74
2023/05/17 07:58:59;;;;;;;4.73;2.60;;;17.50;58.70;;;;;;5035902;28;20448;-74
2023/05/17 08:01:28;;;;;;;4.27;2.70;;;17.50;58.60;;;;;;5018292;28;20449;-74
2023/05/17 08:03:54;;;;;;;5.23;2.77;;;17.50;58.10;;;;;;5035856;28;20540;-74
2023/05/17 08:06:21;;;;;;;6.60;2.80;;;17.50;58.10;;;;;;5035382;28;20453;-74
2023/05/17 08:08:48;;;;;;;7.00;2.97;;;17.50;58.10;;;;;;5035467;28;20947;-73
2023/05/17 08:11:15;;;;;;;4.83;2.80;;;17.50;57.90;;;;;;5035503;28;20822;-74
2023/05/17 08:13:43;;;;;;;5.40;2.80;;;17.50;57.70;;;;;;5035846;28;20608;-76
2023/05/17 08:16:11;;;;;;;5.70;3.07;;;17.60;58.20;;;;;;5017403;28;20457;-75
2023/05/17 08:18:39;;;;;;;6.70;3.00;;;17.60;57.40;;;;;;5035680;28;21005;-76
2023/05/17 08:21:06;;;;;;;5.47;3.30;;;17.60;57.20;;;;;;5035535;28;20835;-76
2023/05/17 08:23:33;;;;;;;6.27;3.10;;;17.60;57.00;;;;;;5035511;28;20560;-76
2023/05/17 08:26:00;;;;;;;4.57;2.80;;;17.60;57.00;;;;;;5035254;28;20473;-75
2023/05/17 08:28:27;;;;;;;3.53;2.63;;;17.70;57.20;;;;;;5035343;28;20461;-76
2023/05/17 08:30:54;;;;;;;6.87;3.00;;;17.60;57.40;;;;;;5017717;28;20453;-77
2023/05/17 08:33:22;;;;;;;4.43;2.93;;;17.60;57.10;;;;;;5035246;28;20571;-76
2023/05/17 08:35:51;;;;;;;5.83;3.10;;;17.60;56.90;;;;;;5034830;28;20525;-75
2023/05/17 08:38:18;;;;;;;5.97;2.97;;;17.60;56.60;;;;;;5035285;28;20496;-75
2023/05/17 08:40:53;;;;;;;4.77;2.90;;;17.70;56.70;;;;;;5017701;28;20863;-74
2023/05/17 08:43:22;;;;;;;5.97;3.30;;;17.90;56.70;;;;;;5035418;28;20809;-76
2023/05/17 08:45:50;;;;;;;6.43;3.10;;;18.00;56.20;;;;;;5017919;28;20464;-76
2023/05/17 08:48:18;;;;;;;4.73;3.10;;;18.10;56.80;;;;;;5035220;28;20832;-76
2023/05/17 08:50:46;;;;;;;4.00;2.93;;;18.20;56.30;;;;;;5034884;28;20476;-75
2023/05/17 08:53:16;;;;;;;5.37;3.33;;;18.30;55.70;;;;;;5035116;28;20497;-75
2023/05/17 08:55:46;;;;;;;4.70;3.40;;;18.40;55.30;;;;;;5033660;28;20547;-74
2023/05/17 08:58:15;;;;;;;4.17;2.90;;;18.40;55.20;;;;;;5034771;28;20477;-76
2023/05/17 09:00:42;;;;;;;5.87;3.00;;;18.60;56.10;;;;;;5034922;28;20441;-77
2023/05/17 09:03:12;;;;;;;4.87;2.80;;;18.70;55.10;;;;;;5000060;28;20206;-74
2023/05/17 09:05:38;;;;;;;6.63;2.87;;;18.70;54.70;;;;;;5034331;28;20459;-74
2023/05/17 09:08:06;;;;;;;6.60;3.30;;;18.70;54.30;;;;;;5034553;28;20213;-75
2023/05/17 09:10:34;;;;;;;9.47;3.57;;;18.70;54.70;;;;;;5034685;28;20481;-77
2023/05/17 09:13:01;;;;;;;10.57;3.90;;;18.80;54.60;;;;;;5017534;28;20508;-75
2023/05/17 09:15:29;;;;;;;4.33;3.47;;;18.80;54.60;;;;;;5034480;28;20511;-74
2023/05/17 09:17:57;;;;;;;11.20;3.30;;;18.90;54.30;;;;;;5034664;28;20221;-74
2023/05/17 09:20:32;;;;;;;5.37;2.87;;;19.00;54.20;;;;;;5033931;28;20938;-75
2023/05/17 09:22:59;;;;;;;4.80;3.20;;;19.10;54.40;;;;;;5034310;28;20689;-74
2023/05/17 09:25:28;;;;;;;4.63;3.57;;;19.20;54.60;;;;;;5016423;28;20982;-74
2023/05/17 09:28:01;;;;;;;5.73;3.50;;;19.20;53.70;;;;;;5034405;28;20317;-74
2023/05/17 09:30:28;;;;;;;4.53;2.90;;;19.30;53.30;;;;;;5034432;28;21001;-75
2023/05/17 09:32:56;;;;;;;4.63;3.13;;;19.30;54.20;;;;;;5034463;28;20222;-76
2023/05/17 09:35:29;;;;;;;5.97;3.10;;;19.30;53.90;;;;;;5033829;28;20504;-76
2023/05/17 09:38:04;;;;;;;5.70;3.47;;;19.20;53.40;;;;;;5034222;28;20210;-76
2023/05/17 09:40:32;;;;;;;4.70;3.10;;;19.20;53.20;;;;;;5033679;28;20230;-76
2023/05/17 09:43:00;;;;;;;5.13;3.20;;;19.20;53.50;;;;;;5034259;28;20199;-74
2023/05/17 09:45:27;;;;;;;3.67;2.67;;;19.20;53.80;;;;;;5034065;28;20231;-76
2023/05/17 09:47:54;;;;;;;4.50;3.13;;;19.20;53.70;;;;;;5034044;28;20471;-76
2023/05/17 09:50:21;;;;;;;3.77;2.50;;;19.20;53.60;;;;;;5033784;28;20755;-76
2023/05/17 09:52:48;;;;;;;4.97;2.83;;;19.20;53.30;;;;;;5016284;28;20722;-75
2023/05/17 09:55:16;;;;;;;3.70;2.50;;;19.20;53.60;;;;;;5033575;28;20459;-76
2023/05/17 09:57:43;;;;;;;5.60;2.80;;;19.30;53.60;;;;;;5033954;28;20594;-75
2023/05/17 10:00:13;;;;;;;4.53;2.50;;;19.40;53.00;;;;;;5033933;28;20206;-75
2023/05/17 10:02:40;;;;;;;3.20;2.60;;;19.40;52.90;;;;;;5033198;28;20449;-77
2023/05/17 10:05:10;;;;;;;4.60;2.50;;;19.40;53.00;;;;;;5033657;28;20647;-76
2023/05/17 10:07:38;;;;;;;3.70;2.43;;;19.40;52.20;;;;;;5032881;28;20216;-74
2023/05/17 10:10:07;;;;;;;4.27;2.60;;;19.40;52.20;;;;;;5033556;28;20230;-76
2023/05/17 10:12:37;;;;;;;3.80;2.63;;;19.40;52.50;;;;;;5015577;28;21047;-74
2023/05/17 10:15:05;;;;;;;5.33;2.87;;;19.40;51.90;;;;;;5031608;28;20276;-75
2023/05/17 10:17:34;;;;;;;4.23;2.50;;;19.40;52.00;;;;;;5014362;28;20569;-76
2023/05/17 10:20:05;;;;;;;3.47;2.30;;;19.40;51.90;;;;;;5032439;28;20688;-76
2023/05/17 10:22:32;;;;;;;4.80;2.57;;;19.40;52.40;;;;;;5032902;28;20888;-77
2023/05/17 10:25:00;;;;;;;4.13;2.50;;;19.40;52.50;;;;;;5033441;28;20586;-74
2023/05/17 10:27:27;;;;;;;3.30;2.60;;;19.40;52.20;;;;;;4998405;28;20314;-75
2023/05/17 10:29:54;;;;;;;6.40;2.40;;;19.50;52.30;;;;;;5033594;28;20289;-75
2023/05/17 10:32:25;;;;;;;3.20;2.27;;;19.50;52.40;;;;;;5032712;28;20337;-77
2023/05/17 10:34:54;;;;;;;5.00;2.60;;;19.50;51.90;;;;;;5033104;28;20209;-76
2023/05/17 10:37:22;;;;;;;5.50;2.40;;;19.50;51.40;;;;;;5014776;28;20241;-74
2023/05/17 10:39:50;;;;;;;4.20;2.73;;;19.50;51.50;;;;;;5033053;28;20575;-76
2023/05/17 10:42:19;;;;;;;5.73;3.03;;;19.50;51.50;;;;;;5033262;28;20206;-74
2023/05/17 10:44:48;;;;;;;4.03;2.80;;;19.60;51.80;;;;;;5033060;28;20237;-75
2023/05/17 10:47:16;;;;;;;3.93;2.57;;;19.60;51.80;;;;;;5013986;28;20194;-77
2023/05/17 10:49:46;;;;;;;5.20;2.50;;;19.70;51.90;;;;;;5033066;28;20210;-76
2023/05/17 10:52:17;;;;;;;4.70;2.80;;;19.70;52.10;;;;;;4998771;28;20654;-76
2023/05/17 10:54:45;;;;;;;6.47;2.63;;;19.80;51.30;;;;;;5033140;28;20213;-74
2023/05/17 10:57:20;;;;;;;4.57;2.83;;;19.80;51.20;;;;;;5033010;28;20230;-78
2023/05/17 10:59:57;;;;;;;5.20;2.90;;;19.80;51.20;;;;;;5033034;28;20304;-74
2023/05/17 11:02:27;;;;;;;3.60;2.67;;;19.80;51.00;;;;;;5032645;28;20257;-76
2023/05/17 11:04:55;;;;;;;5.17;2.70;;;19.80;51.60;;;;;;5033078;28;20661;-77
2023/05/17 11:07:30;;;;;;;3.30;2.80;;;19.80;51.00;;;;;;5015034;28;20206;-76
2023/05/17 11:10:05;;;;;;;4.93;2.87;;;19.80;50.70;;;;;;5033557;28;20440;-76
2023/05/17 11:12:34;;;;;;;4.50;2.33;;;19.90;51.50;;;;;;5032886;28;20221;-76
2023/05/17 11:15:05;;;;;;;5.00;2.60;;;19.90;51.00;;;;;;5032423;28;20274;-75
2023/05/17 11:17:36;;;;;;;6.00;2.97;;;19.90;51.60;;;;;;5032966;28;20429;-75
2023/05/17 11:20:08;;;;;;;3.60;2.97;;;19.80;51.10;;;;;;5035526;28;20210;-76
2023/05/17 11:22:39;;;;;;;6.00;3.10;;;19.80;51.10;;;;;;5036679;28;20194;-75
2023/05/17 11:25:11;;;;;;;4.23;2.30;;;19.80;50.70;;;;;;5036828;28;20230;-76
2023/05/17 11:27:44;;;;;;;2.90;2.30;;;19.80;50.00;;;;;;5018920;28;20227;-76
2023/05/17 11:30:28;;;;;;;4.00;3.07;;;19.80;50.30;;;;;;5036542;28;20548;-76
2023/05/17 11:32:58;;;;;;;4.87;2.70;;;19.70;49.70;;;;;;5036086;28;20238;-77
2023/05/17 11:35:27;;;;;;;4.43;2.70;;;19.70;50.00;;;;;;5036347;28;20206;-75
2023/05/17 11:38:13;;;;;;;4.40;2.80;;;19.70;49.90;;;;;;5036250;28;20297;-77
2023/05/17 11:40:41;;;;;;;4.10;2.80;;;19.80;49.40;;;;;;5036114;28;20264;-76
2023/05/17 11:43:17;;;;;;;3.87;2.77;;;19.90;49.20;;;;;;5036168;28;20210;-77
2023/05/17 11:45:47;;;;;;;5.17;2.97;;;20.00;49.90;;;;;;5035803;28;20202;-77
2023/05/17 11:48:15;;;;;;;3.73;2.70;;;20.10;50.00;;;;;;5036511;28;20260;-76
2023/05/17 11:50:43;;;;;;;4.87;2.53;;;20.20;49.60;;;;;;5018934;28;20230;-75
2023/05/17 11:53:12;;;;;;;3.57;2.60;;;20.40;49.20;;;;;;5035976;28;20222;-77
2023/05/17 11:55:40;;;;;;;3.03;2.40;;;20.50;48.50;;;;;;5035895;28;20301;-76
2023/05/17 11:58:09;;;;;;;3.83;2.87;;;20.60;48.70;;;;;;5035741;28;20217;-77
2023/05/17 12:00:37;;;;;;;5.10;2.30;;;20.70;48.80;;;;;;5035962;28;20643;-78
2023/05/17 12:03:20;;;;;;;3.70;2.70;;;20.80;48.00;;;;;;5035880;28;20226;-76
2023/05/17 12:05:49;;;;;;;3.00;2.47;;;20.90;48.40;;;;;;5018263;28;20567;-76
2023/05/17 12:08:23;;;;;;;2.50;2.30;;;21.00;47.70;;;;;;5001611;28;20258;-77
2023/05/17 12:10:52;;;;;;;3.23;2.50;;;21.00;47.50;;;;;;5035867;28;20663;-76
2023/05/17 12:13:20;;;;;;;4.10;2.50;;;21.00;47.80;;;;;;5035767;28;20230;-77
2023/05/17 12:15:55;;;;;;;3.50;2.57;;;21.00;47.30;;;;;;5035720;28;20202;-77
2023/05/17 12:18:22;;;;;;;3.70;2.50;;;21.10;46.90;;;;;;5035845;28;20316;-77
2023/05/17 12:20:56;;;;;;;5.07;2.43;;;21.10;46.90;;;;;;5035280;28;20753;-75
2023/05/17 12:23:29;;;;;;;3.63;2.97;;;21.10;46.50;;;;;;5036031;28;20202;-76
2023/05/17 12:26:06;;;;;;;4.17;2.80;;;21.10;47.00;;;;;;5034409;28;20228;-75
2023/05/17 12:28:33;;;;;;;3.50;2.50;;;21.20;46.90;;;;;;5017836;28;20260;-76
2023/05/17 12:31:02;;;;;;;3.33;2.60;;;21.20;47.20;;;;;;5035179;28;20238;-77
2023/05/17 12:33:31;;;;;;;2.97;2.43;;;21.30;47.00;;;;;;5035323;28;20944;-77
2023/05/17 12:35:59;;;;;;;4.60;2.57;;;21.40;46.80;;;;;;5034543;28;20217;-76
2023/05/17 12:38:30;;;;;;;4.77;2.80;;;21.50;47.00;;;;;;5023901;28;20285;-76
2023/05/17 12:40:59;;;;;;;2.93;2.40;;;21.50;46.90;;;;;;5015129;28;20203;-78
2023/05/17 12:43:27;;;;;;;3.57;2.87;;;21.60;46.80;;;;;;5015269;28;20211;-76
2023/05/17 12:45:54;;;;;;;5.20;2.80;;;21.70;46.20;;;;;;5031818;28;20260;-78
2023/05/17 12:48:26;;;;;;;3.40;2.73;;;21.80;46.80;;;;;;5035019;28;20319;-76
2023/05/17 12:50:54;;;;;;;4.53;2.83;;;21.80;45.90;;;;;;5034404;28;20238;-76